sensor_id;sensor_type;location;lat;lon;timestamp;temperature;humidity
7048;DHT22;3565;53.254;10.352;2024-03-17T00:00:39;3.60;1.00
7048;DHT22;3565;53.254;10.352;2024-03-17T00:03:08;3.70;1.00
7048;DHT22;3565;53.254;10.352;2024-03-17T00:08:15;3.60;1.00
7048;DHT22;3565;53.254;10.352;2024-03-17T00:10:44;3.60;1.00
7048;DHT22;3565;53.254;10.352;2024-03-17T00:13:13;3.50;1.00
7048;DHT22;3565;53.254;10.352;2024-03-17T00:18:19;3.50;1.00
7048;DHT22;3565;53.254;10.352;2024-03-17T00:20:48;3.50;1.00
7048;DHT22;3565;53.254;10.352;2024-03-17T00:23:17;3.50;1.00
7048;DHT22;3565;53.254;10.352;2024-03-17T00:28:24;3.40;1.00
7048;DHT22;3565;53.254;10.352;2024-03-17T00:30:53;3.40;1.00
7048;DHT22;3565;53.254;10.352;2024-03-17T00:36:00;3.40;1.00
7048;DHT22;3565;53.254;10.352;2024-03-17T00:38:29;3.40;1.00
7048;DHT22;3565;53.254;10.352;2024-03-17T00:40:58;3.50;1.00
7048;DHT22;3565;53.254;10.352;2024-03-17T00:46:06;3.40;1.00
7048;DHT22;3565;53.254;10.352;2024-03-17T00:48:35;3.40;1.00
7048;DHT22;3565;53.254;10.352;2024-03-17T00:51:05;3.40;1.00
7048;DHT22;3565;53.254;10.352;2024-03-17T00:53:34;3.30;1.00
7048;DHT22;3565;53.254;10.352;2024-03-17T00:56:04;3.30;1.00
7048;DHT22;3565;53.254;10.352;2024-03-17T00:58:34;3.30;1.00
7048;DHT22;3565;53.254;10.352;2024-03-17T01:03:42;3.40;1.00
7048;DHT22;3565;53.254;10.352;2024-03-17T01:08:48;3.30;1.00
7048;DHT22;3565;53.254;10.352;2024-03-17T01:11:19;3.30;1.00
7048;DHT22;3565;53.254;10.352;2024-03-17T01:16:25;3.40;1.00
7048;DHT22;3565;53.254;10.352;2024-03-17T01:18:54;3.30;1.00
7048;DHT22;3565;53.254;10.352;2024-03-17T01:21:23;3.20;1.00
7048;DHT22;3565;53.254;10.352;2024-03-17T01:26:29;3.10;1.00
7048;DHT22;3565;53.254;10.352;2024-03-17T01:28:58;3.00;1.00
7048;DHT22;3565;53.254;10.352;2024-03-17T01:31:27;3.00;1.00
7048;DHT22;3565;53.254;10.352;2024-03-17T01:36:39;2.90;1.00
7048;DHT22;3565;53.254;10.352;2024-03-17T01:39:08;2.80;1.00
7048;DHT22;3565;53.254;10.352;2024-03-17T01:41:37;2.80;1.00
7048;DHT22;3565;53.254;10.352;2024-03-17T01:44:06;2.70;1.00
7048;DHT22;3565;53.254;10.352;2024-03-17T01:49:12;2.60;1.00
7048;DHT22;3565;53.254;10.352;2024-03-17T01:51:42;2.60;1.00
7048;DHT22;3565;53.254;10.352;2024-03-17T01:54:11;2.50;1.00
7048;DHT22;3565;53.254;10.352;2024-03-17T01:59:18;2.50;1.00
7048;DHT22;3565;53.254;10.352;2024-03-17T02:01:47;2.50;1.00
7048;DHT22;3565;53.254;10.352;2024-03-17T02:06:53;2.40;1.00
7048;DHT22;3565;53.254;10.352;2024-03-17T02:09:22;2.40;1.00
7048;DHT22;3565;53.254;10.352;2024-03-17T02:11:52;2.30;1.00
7048;DHT22;3565;53.254;10.352;2024-03-17T02:16:58;2.20;1.00
7048;DHT22;3565;53.254;10.352;2024-03-17T02:19:28;2.10;1.00
7048;DHT22;3565;53.254;10.352;2024-03-17T02:21:57;2.10;1.00
7048;DHT22;3565;53.254;10.352;2024-03-17T02:27:03;2.10;1.00
7048;DHT22;3565;53.254;10.352;2024-03-17T02:29:32;2.10;1.00
7048;DHT22;3565;53.254;10.352;2024-03-17T02:32:01;2.10;1.00
7048;DHT22;3565;53.254;10.352;2024-03-17T02:34:32;2.10;1.00
7048;DHT22;3565;53.254;10.352;2024-03-17T02:37:01;2.20;1.00
7048;DHT22;3565;53.254;10.352;2024-03-17T02:39:31;2.20;1.00
7048;DHT22;3565;53.254;10.352;2024-03-17T02:44:40;2.20;1.00
7048;DHT22;3565;53.254;10.352;2024-03-17T02:49:47;2.20;1.00
7048;DHT22;3565;53.254;10.352;2024-03-17T02:52:18;2.20;1.00
7048;DHT22;3565;53.254;10.352;2024-03-17T02:57:26;2.20;1.00
7048;DHT22;3565;53.254;10.352;2024-03-17T02:59:56;2.10;1.00
7048;DHT22;3565;53.254;10.352;2024-03-17T03:02:25;2.00;1.00
7048;DHT22;3565;53.254;10.352;2024-03-17T03:04:54;2.00;1.00
7048;DHT22;3565;53.254;10.352;2024-03-17T03:10:01;2.00;1.00
7048;DHT22;3565;53.254;10.352;2024-03-17T03:12:30;2.00;1.00
7048;DHT22;3565;53.254;10.352;2024-03-17T03:14:59;2.00;1.00
7048;DHT22;3565;53.254;10.352;2024-03-17T03:20:07;2.00;1.00
7048;DHT22;3565;53.254;10.352;2024-03-17T03:22:36;2.10;1.00
7048;DHT22;3565;53.254;10.352;2024-03-17T03:25:06;2.00;1.00
7048;DHT22;3565;53.254;10.352;2024-03-17T03:30:14;1.90;1.00
7048;DHT22;3565;53.254;10.352;2024-03-17T03:32:46;1.90;1.00
7048;DHT22;3565;53.254;10.352;2024-03-17T03:37:52;1.90;1.00
7048;DHT22;3565;53.254;10.352;2024-03-17T03:40:21;1.90;1.00
7048;DHT22;3565;53.254;10.352;2024-03-17T03:42:50;1.90;1.00
7048;DHT22;3565;53.254;10.352;2024-03-17T03:45:20;1.90;1.00
7048;DHT22;3565;53.254;10.352;2024-03-17T03:47:50;1.90;1.00
7048;DHT22;3565;53.254;10.352;2024-03-17T03:52:58;1.90;1.00
7048;DHT22;3565;53.254;10.352;2024-03-17T03:58:04;2.00;1.00
7048;DHT22;3565;53.254;10.352;2024-03-17T04:00:33;2.00;1.00
7048;DHT22;3565;53.254;10.352;2024-03-17T04:03:03;2.00;1.00
7048;DHT22;3565;53.254;10.352;2024-03-17T04:05:33;2.00;1.00
7048;DHT22;3565;53.254;10.352;2024-03-17T04:08:03;2.10;1.00
7048;DHT22;3565;53.254;10.352;2024-03-17T04:10:32;2.10;1.00
7048;DHT22;3565;53.254;10.352;2024-03-17T04:13:01;2.10;1.00
7048;DHT22;3565;53.254;10.352;2024-03-17T04:18:08;1.90;1.00
7048;DHT22;3565;53.254;10.352;2024-03-17T04:20:37;1.90;1.00
7048;DHT22;3565;53.254;10.352;2024-03-17T04:23:06;1.80;1.00
7048;DHT22;3565;53.254;10.352;2024-03-17T04:25:35;1.70;1.00
7048;DHT22;3565;53.254;10.352;2024-03-17T04:28:05;1.50;1.00
7048;DHT22;3565;53.254;10.352;2024-03-17T04:30:34;1.40;1.00
7048;DHT22;3565;53.254;10.352;2024-03-17T04:33:04;1.40;1.00
7048;DHT22;3565;53.254;10.352;2024-03-17T04:38:14;1.30;1.00
7048;DHT22;3565;53.254;10.352;2024-03-17T04:40:43;1.40;1.00
7048;DHT22;3565;53.254;10.352;2024-03-17T04:43:12;1.30;1.00
7048;DHT22;3565;53.254;10.352;2024-03-17T04:45:41;1.30;1.00
7048;DHT22;3565;53.254;10.352;2024-03-17T04:50:50;1.20;1.00
7048;DHT22;3565;53.254;10.352;2024-03-17T04:56:01;1.00;1.00
7048;DHT22;3565;53.254;10.352;2024-03-17T04:58:32;0.90;1.00
7048;DHT22;3565;53.254;10.352;2024-03-17T05:01:07;0.90;1.00
7048;DHT22;3565;53.254;10.352;2024-03-17T05:03:36;0.90;1.00
7048;DHT22;3565;53.254;10.352;2024-03-17T05:06:06;0.90;1.00
7048;DHT22;3565;53.254;10.352;2024-03-17T05:08:35;0.90;1.00
7048;DHT22;3565;53.254;10.352;2024-03-17T05:11:05;0.80;1.00
7048;DHT22;3565;53.254;10.352;2024-03-17T05:13:35;0.80;1.00
7048;DHT22;3565;53.254;10.352;2024-03-17T05:16:06;0.80;1.00
7048;DHT22;3565;53.254;10.352;2024-03-17T05:18:35;0.70;1.00
7048;DHT22;3565;53.254;10.352;2024-03-17T05:23:44;0.60;1.00
7048;DHT22;3565;53.254;10.352;2024-03-17T05:28:51;0.60;1.00
7048;DHT22;3565;53.254;10.352;2024-03-17T05:31:22;0.70;1.00
7048;DHT22;3565;53.254;10.352;2024-03-17T05:36:29;0.90;1.00
7048;DHT22;3565;53.254;10.352;2024-03-17T05:39:00;1.10;1.00
7048;DHT22;3565;53.254;10.352;2024-03-17T05:41:29;1.10;1.00
7048;DHT22;3565;53.254;10.352;2024-03-17T05:43:58;1.20;1.00
7048;DHT22;3565;53.254;10.352;2024-03-17T05:49:06;1.20;1.00
7048;DHT22;3565;53.254;10.352;2024-03-17T05:51:35;1.30;1.00
7048;DHT22;3565;53.254;10.352;2024-03-17T05:54:04;1.10;1.00
7048;DHT22;3565;53.254;10.352;2024-03-17T05:59:10;1.40;1.00
7048;DHT22;3565;53.254;10.352;2024-03-17T06:01:39;1.50;1.00
7048;DHT22;3565;53.254;10.352;2024-03-17T06:04:08;1.50;1.00
7048;DHT22;3565;53.254;10.352;2024-03-17T06:06:38;1.50;1.00
7048;DHT22;3565;53.254;10.352;2024-03-17T06:09:07;1.60;1.00
7048;DHT22;3565;53.254;10.352;2024-03-17T06:14:14;1.60;1.00
7048;DHT22;3565;53.254;10.352;2024-03-17T06:16:43;1.60;1.00
7048;DHT22;3565;53.254;10.352;2024-03-17T06:19:12;1.70;1.00
7048;DHT22;3565;53.254;10.352;2024-03-17T06:21:42;1.70;1.00
7048;DHT22;3565;53.254;10.352;2024-03-17T06:26:51;1.80;1.00
7048;DHT22;3565;53.254;10.352;2024-03-17T06:31:58;2.00;1.00
7048;DHT22;3565;53.254;10.352;2024-03-17T06:37:06;2.10;1.00
7048;DHT22;3565;53.254;10.352;2024-03-17T06:39:35;2.20;1.00
7048;DHT22;3565;53.254;10.352;2024-03-17T06:42:05;2.30;1.00
7048;DHT22;3565;53.254;10.352;2024-03-17T06:47:11;2.50;1.00
7048;DHT22;3565;53.254;10.352;2024-03-17T06:49:40;2.70;1.00
7048;DHT22;3565;53.254;10.352;2024-03-17T06:52:11;2.80;1.00
7048;DHT22;3565;53.254;10.352;2024-03-17T06:54:40;2.90;1.00
7048;DHT22;3565;53.254;10.352;2024-03-17T06:57:09;2.80;1.00
7048;DHT22;3565;53.254;10.352;2024-03-17T06:59:39;2.90;1.00
7048;DHT22;3565;53.254;10.352;2024-03-17T07:02:08;2.90;1.00
7048;DHT22;3565;53.254;10.352;2024-03-17T07:04:40;2.90;1.00
7048;DHT22;3565;53.254;10.352;2024-03-17T07:07:09;3.10;1.00
7048;DHT22;3565;53.254;10.352;2024-03-17T07:09:38;3.40;1.00
7048;DHT22;3565;53.254;10.352;2024-03-17T07:12:08;3.60;1.00
7048;DHT22;3565;53.254;10.352;2024-03-17T07:14:37;3.60;1.00
7048;DHT22;3565;53.254;10.352;2024-03-17T07:17:06;3.60;1.00
7048;DHT22;3565;53.254;10.352;2024-03-17T07:19:35;3.60;1.00
7048;DHT22;3565;53.254;10.352;2024-03-17T07:22:04;3.80;1.00
7048;DHT22;3565;53.254;10.352;2024-03-17T07:24:33;4.10;1.00
7048;DHT22;3565;53.254;10.352;2024-03-17T07:27:03;4.30;1.00
7048;DHT22;3565;53.254;10.352;2024-03-17T07:32:10;5.10;1.00
7048;DHT22;3565;53.254;10.352;2024-03-17T07:34:39;5.70;1.00
7048;DHT22;3565;53.254;10.352;2024-03-17T07:37:08;5.80;1.00
7048;DHT22;3565;53.254;10.352;2024-03-17T07:39:37;5.90;1.00
7048;DHT22;3565;53.254;10.352;2024-03-17T07:42:06;6.50;1.00
7048;DHT22;3565;53.254;10.352;2024-03-17T07:47:13;7.20;1.00
7048;DHT22;3565;53.254;10.352;2024-03-17T07:49:45;8.00;1.00
7048;DHT22;3565;53.254;10.352;2024-03-17T07:52:12;8.60;1.00
7048;DHT22;3565;53.254;10.352;2024-03-17T07:54:41;8.90;1.00
7048;DHT22;3565;53.254;10.352;2024-03-17T07:57:10;8.90;1.00
7048;DHT22;3565;53.254;10.352;2024-03-17T07:59:39;9.40;1.00
7048;DHT22;3565;53.254;10.352;2024-03-17T08:02:10;9.30;1.00
7048;DHT22;3565;53.254;10.352;2024-03-17T08:04:40;9.80;1.00
7048;DHT22;3565;53.254;10.352;2024-03-17T08:07:10;9.40;1.00
7048;DHT22;3565;53.254;10.352;2024-03-17T08:09:39;9.70;1.00
7048;DHT22;3565;53.254;10.352;2024-03-17T08:12:09;10.10;1.00
7048;DHT22;3565;53.254;10.352;2024-03-17T08:14:38;10.60;1.00
7048;DHT22;3565;53.254;10.352;2024-03-17T08:17:07;11.00;1.00
7048;DHT22;3565;53.254;10.352;2024-03-17T08:22:14;10.80;1.00
7048;DHT22;3565;53.254;10.352;2024-03-17T08:24:43;11.40;1.00
7048;DHT22;3565;53.254;10.352;2024-03-17T08:27:12;12.00;1.00
7048;DHT22;3565;53.254;10.352;2024-03-17T08:29:41;12.10;1.00
7048;DHT22;3565;53.254;10.352;2024-03-17T08:32:10;12.60;1.00
7048;DHT22;3565;53.254;10.352;2024-03-17T08:34:39;12.60;1.00
7048;DHT22;3565;53.254;10.352;2024-03-17T08:37:08;11.80;1.00
7048;DHT22;3565;53.254;10.352;2024-03-17T08:39:38;11.60;1.00
7048;DHT22;3565;53.254;10.352;2024-03-17T08:44:46;12.70;1.00
7048;DHT22;3565;53.254;10.352;2024-03-17T08:47:15;11.80;1.00
7048;DHT22;3565;53.254;10.352;2024-03-17T08:49:44;12.10;1.00
7048;DHT22;3565;53.254;10.352;2024-03-17T08:52:13;12.00;1.00
7048;DHT22;3565;53.254;10.352;2024-03-17T08:57:21;11.70;1.00
7048;DHT22;3565;53.254;10.352;2024-03-17T08:59:50;11.80;1.00
7048;DHT22;3565;53.254;10.352;2024-03-17T09:02:21;12.60;1.00
7048;DHT22;3565;53.254;10.352;2024-03-17T09:04:50;13.30;1.00
7048;DHT22;3565;53.254;10.352;2024-03-17T09:07:19;13.60;1.00
7048;DHT22;3565;53.254;10.352;2024-03-17T09:09:48;12.90;1.00
7048;DHT22;3565;53.254;10.352;2024-03-17T09:12:17;13.30;1.00
7048;DHT22;3565;53.254;10.352;2024-03-17T09:14:48;13.20;1.00
7048;DHT22;3565;53.254;10.352;2024-03-17T09:17:17;12.40;1.00
7048;DHT22;3565;53.254;10.352;2024-03-17T09:19:48;12.10;1.00
7048;DHT22;3565;53.254;10.352;2024-03-17T09:24:58;12.50;1.00
7048;DHT22;3565;53.254;10.352;2024-03-17T09:27:27;12.80;1.00
7048;DHT22;3565;53.254;10.352;2024-03-17T09:32:33;13.30;1.00
7048;DHT22;3565;53.254;10.352;2024-03-17T09:35:02;13.50;1.00
7048;DHT22;3565;53.254;10.352;2024-03-17T09:37:31;11.90;1.00
7048;DHT22;3565;53.254;10.352;2024-03-17T09:40:02;10.60;1.00
7048;DHT22;3565;53.254;10.352;2024-03-17T09:42:33;9.50;1.00
7048;DHT22;3565;53.254;10.352;2024-03-17T09:45:02;9.10;1.00
7048;DHT22;3565;53.254;10.352;2024-03-17T09:47:31;10.10;1.00
7048;DHT22;3565;53.254;10.352;2024-03-17T09:50:01;11.50;1.00
7048;DHT22;3565;53.254;10.352;2024-03-17T09:52:30;12.30;1.00
7048;DHT22;3565;53.254;10.352;2024-03-17T09:55:08;12.40;1.00
7048;DHT22;3565;53.254;10.352;2024-03-17T09:57:33;11.30;1.00
7048;DHT22;3565;53.254;10.352;2024-03-17T10:00:09;11.20;1.00
7048;DHT22;3565;53.254;10.352;2024-03-17T10:02:43;12.90;1.00
7048;DHT22;3565;53.254;10.352;2024-03-17T10:05:22;13.10;1.00
7048;DHT22;3565;53.254;10.352;2024-03-17T10:10:28;11.20;1.00
7048;DHT22;3565;53.254;10.352;2024-03-17T10:12:57;11.20;1.00
7048;DHT22;3565;53.254;10.352;2024-03-17T10:15:26;11.90;1.00
7048;DHT22;3565;53.254;10.352;2024-03-17T10:17:55;12.90;1.00
7048;DHT22;3565;53.254;10.352;2024-03-17T10:20:25;12.30;1.00
7048;DHT22;3565;53.254;10.352;2024-03-17T10:23:03;12.20;1.00
7048;DHT22;3565;53.254;10.352;2024-03-17T10:25:33;12.80;1.00
7048;DHT22;3565;53.254;10.352;2024-03-17T10:30:59;13.30;1.00
7048;DHT22;3565;53.254;10.352;2024-03-17T10:36:15;12.70;1.00
7048;DHT22;3565;53.254;10.352;2024-03-17T10:38:41;12.50;1.00
7048;DHT22;3565;53.254;10.352;2024-03-17T10:41:12;12.20;1.00
7048;DHT22;3565;53.254;10.352;2024-03-17T10:43:41;11.30;1.00
7048;DHT22;3565;53.254;10.352;2024-03-17T10:46:11;11.80;1.00
7048;DHT22;3565;53.254;10.352;2024-03-17T10:48:42;12.40;1.00
7048;DHT22;3565;53.254;10.352;2024-03-17T10:53:51;11.60;1.00
7048;DHT22;3565;53.254;10.352;2024-03-17T10:56:21;12.00;1.00
7048;DHT22;3565;53.254;10.352;2024-03-17T11:01:30;12.40;1.00
7048;DHT22;3565;53.254;10.352;2024-03-17T11:04:00;12.60;1.00
7048;DHT22;3565;53.254;10.352;2024-03-17T11:06:31;13.50;1.00
7048;DHT22;3565;53.254;10.352;2024-03-17T11:11:39;12.00;1.00
7048;DHT22;3565;53.254;10.352;2024-03-17T11:16:56;14.60;1.00
7048;DHT22;3565;53.254;10.352;2024-03-17T11:19:26;15.00;1.00
7048;DHT22;3565;53.254;10.352;2024-03-17T11:21:55;15.20;1.00
7048;DHT22;3565;53.254;10.352;2024-03-17T11:27:21;15.90;1.00
7048;DHT22;3565;53.254;10.352;2024-03-17T11:29:52;15.90;1.00
7048;DHT22;3565;53.254;10.352;2024-03-17T11:32:27;15.90;1.00
7048;DHT22;3565;53.254;10.352;2024-03-17T11:37:51;15.20;1.00
7048;DHT22;3565;53.254;10.352;2024-03-17T11:40:25;15.60;1.00
7048;DHT22;3565;53.254;10.352;2024-03-17T11:43:04;14.40;1.00
7048;DHT22;3565;53.254;10.352;2024-03-17T11:48:14;14.40;1.00
7048;DHT22;3565;53.254;10.352;2024-03-17T11:50:45;14.60;1.00
7048;DHT22;3565;53.254;10.352;2024-03-17T11:55:51;15.30;1.00
7048;DHT22;3565;53.254;10.352;2024-03-17T11:58:21;13.90;1.00
7048;DHT22;3565;53.254;10.352;2024-03-17T12:00:53;13.90;1.00
7048;DHT22;3565;53.254;10.352;2024-03-17T12:06:00;15.00;1.00
7048;DHT22;3565;53.254;10.352;2024-03-17T12:11:17;13.90;1.00
7048;DHT22;3565;53.254;10.352;2024-03-17T12:13:46;13.10;1.00
7048;DHT22;3565;53.254;10.352;2024-03-17T12:18:54;12.80;1.00
7048;DHT22;3565;53.254;10.352;2024-03-17T12:21:25;12.80;1.00
7048;DHT22;3565;53.254;10.352;2024-03-17T12:26:31;13.70;1.00
7048;DHT22;3565;53.254;10.352;2024-03-17T12:29:02;14.60;1.00
7048;DHT22;3565;53.254;10.352;2024-03-17T12:31:31;15.10;1.00
7048;DHT22;3565;53.254;10.352;2024-03-17T12:34:00;14.80;1.00
7048;DHT22;3565;53.254;10.352;2024-03-17T12:42:07;15.60;1.00
7048;DHT22;3565;53.254;10.352;2024-03-17T12:44:38;15.00;1.00
7048;DHT22;3565;53.254;10.352;2024-03-17T12:47:14;15.70;1.00
7048;DHT22;3565;53.254;10.352;2024-03-17T12:49:46;16.50;1.00
7048;DHT22;3565;53.254;10.352;2024-03-17T12:55:00;17.70;1.00
7048;DHT22;3565;53.254;10.352;2024-03-17T12:57:48;18.10;1.00
7048;DHT22;3565;53.254;10.352;2024-03-17T13:03:23;16.90;1.00
7048;DHT22;3565;53.254;10.352;2024-03-17T13:05:52;16.90;1.00
7048;DHT22;3565;53.254;10.352;2024-03-17T13:08:22;17.40;1.00
7048;DHT22;3565;53.254;10.352;2024-03-17T13:10:51;17.60;1.00
7048;DHT22;3565;53.254;10.352;2024-03-17T13:13:20;15.60;1.00
7048;DHT22;3565;53.254;10.352;2024-03-17T13:15:50;15.90;1.00
7048;DHT22;3565;53.254;10.352;2024-03-17T13:18:20;15.50;1.00
7048;DHT22;3565;53.254;10.352;2024-03-17T13:20:50;15.30;1.00
7048;DHT22;3565;53.254;10.352;2024-03-17T13:25:58;16.60;1.00
7048;DHT22;3565;53.254;10.352;2024-03-17T13:28:27;17.20;1.00
7048;DHT22;3565;53.254;10.352;2024-03-17T13:30:58;17.60;1.00
7048;DHT22;3565;53.254;10.352;2024-03-17T13:36:05;17.70;1.00
7048;DHT22;3565;53.254;10.352;2024-03-17T13:38:35;16.00;1.00
7048;DHT22;3565;53.254;10.352;2024-03-17T13:41:04;14.90;1.00
7048;DHT22;3565;53.254;10.352;2024-03-17T13:43:34;13.80;1.00
7048;DHT22;3565;53.254;10.352;2024-03-17T13:46:04;14.20;1.00
7048;DHT22;3565;53.254;10.352;2024-03-17T13:51:10;14.00;1.00
7048;DHT22;3565;53.254;10.352;2024-03-17T13:56:18;16.30;1.00
7048;DHT22;3565;53.254;10.352;2024-03-17T13:58:51;17.00;1.00
7048;DHT22;3565;53.254;10.352;2024-03-17T14:01:21;17.80;1.00
7048;DHT22;3565;53.254;10.352;2024-03-17T14:03:50;17.90;1.00
7048;DHT22;3565;53.254;10.352;2024-03-17T14:06:19;17.50;1.00
7048;DHT22;3565;53.254;10.352;2024-03-17T14:08:48;17.80;1.00
7048;DHT22;3565;53.254;10.352;2024-03-17T14:13:55;17.30;1.00
7048;DHT22;3565;53.254;10.352;2024-03-17T14:16:24;17.00;1.00
7048;DHT22;3565;53.254;10.352;2024-03-17T14:18:54;17.70;1.00
7048;DHT22;3565;53.254;10.352;2024-03-17T14:21:23;18.10;1.00
7048;DHT22;3565;53.254;10.352;2024-03-17T14:23:52;17.30;1.00
7048;DHT22;3565;53.254;10.352;2024-03-17T14:26:22;17.10;1.00
7048;DHT22;3565;53.254;10.352;2024-03-17T14:28:51;16.30;1.00
7048;DHT22;3565;53.254;10.352;2024-03-17T14:34:01;16.20;1.00
7048;DHT22;3565;53.254;10.352;2024-03-17T14:36:31;15.50;1.00
7048;DHT22;3565;53.254;10.352;2024-03-17T14:39:01;15.40;1.00
7048;DHT22;3565;53.254;10.352;2024-03-17T14:41:30;15.30;1.00
7048;DHT22;3565;53.254;10.352;2024-03-17T14:46:39;16.60;1.00
7048;DHT22;3565;53.254;10.352;2024-03-17T14:49:08;16.90;1.00
7048;DHT22;3565;53.254;10.352;2024-03-17T14:51:37;15.60;1.00
7048;DHT22;3565;53.254;10.352;2024-03-17T14:54:07;16.30;1.00
7048;DHT22;3565;53.254;10.352;2024-03-17T14:59:14;16.80;1.00
7048;DHT22;3565;53.254;10.352;2024-03-17T15:01:46;17.50;1.00
7048;DHT22;3565;53.254;10.352;2024-03-17T15:04:16;18.30;1.00
7048;DHT22;3565;53.254;10.352;2024-03-17T15:06:47;18.40;1.00
7048;DHT22;3565;53.254;10.352;2024-03-17T15:09:18;17.90;1.00
7048;DHT22;3565;53.254;10.352;2024-03-17T15:11:49;18.10;1.00
7048;DHT22;3565;53.254;10.352;2024-03-17T15:14:19;18.00;1.00
7048;DHT22;3565;53.254;10.352;2024-03-17T15:16:48;17.80;1.00
7048;DHT22;3565;53.254;10.352;2024-03-17T15:21:56;17.90;1.00
7048;DHT22;3565;53.254;10.352;2024-03-17T15:27:03;17.70;1.00
7048;DHT22;3565;53.254;10.352;2024-03-17T15:29:32;17.50;1.00
7048;DHT22;3565;53.254;10.352;2024-03-17T15:32:03;16.00;1.00
7048;DHT22;3565;53.254;10.352;2024-03-17T15:37:09;16.50;1.00
7048;DHT22;3565;53.254;10.352;2024-03-17T15:39:39;16.40;1.00
7048;DHT22;3565;53.254;10.352;2024-03-17T15:44:46;16.60;1.00
7048;DHT22;3565;53.254;10.352;2024-03-17T15:49:54;16.60;1.00
7048;DHT22;3565;53.254;10.352;2024-03-17T15:52:23;16.50;1.00
7048;DHT22;3565;53.254;10.352;2024-03-17T15:54:52;16.40;1.00
7048;DHT22;3565;53.254;10.352;2024-03-17T15:57:22;15.80;1.00
7048;DHT22;3565;53.254;10.352;2024-03-17T15:59:53;15.00;1.00
7048;DHT22;3565;53.254;10.352;2024-03-17T16:02:23;15.60;1.00
7048;DHT22;3565;53.254;10.352;2024-03-17T16:04:53;15.50;1.00
7048;DHT22;3565;53.254;10.352;2024-03-17T16:10:01;15.30;1.00
7048;DHT22;3565;53.254;10.352;2024-03-17T16:12:31;14.40;1.00
7048;DHT22;3565;53.254;10.352;2024-03-17T16:17:40;13.20;1.00
7048;DHT22;3565;53.254;10.352;2024-03-17T16:20:18;13.10;1.00
7048;DHT22;3565;53.254;10.352;2024-03-17T16:25:19;12.50;1.00
7048;DHT22;3565;53.254;10.352;2024-03-17T16:27:49;12.10;1.00
7048;DHT22;3565;53.254;10.352;2024-03-17T16:30:19;12.00;1.00
7048;DHT22;3565;53.254;10.352;2024-03-17T16:32:48;11.80;1.00
7048;DHT22;3565;53.254;10.352;2024-03-17T16:35:17;11.40;1.00
7048;DHT22;3565;53.254;10.352;2024-03-17T16:37:50;11.20;1.00
7048;DHT22;3565;53.254;10.352;2024-03-17T16:40:19;10.90;1.00
7048;DHT22;3565;53.254;10.352;2024-03-17T16:42:48;10.80;1.00
7048;DHT22;3565;53.254;10.352;2024-03-17T16:45:19;10.70;1.00
7048;DHT22;3565;53.254;10.352;2024-03-17T16:50:25;10.20;1.00
7048;DHT22;3565;53.254;10.352;2024-03-17T16:55:32;10.10;1.00
7048;DHT22;3565;53.254;10.352;2024-03-17T16:58:03;9.90;1.00
7048;DHT22;3565;53.254;10.352;2024-03-17T17:00:31;9.60;1.00
7048;DHT22;3565;53.254;10.352;2024-03-17T17:03:01;9.40;1.00
7048;DHT22;3565;53.254;10.352;2024-03-17T17:08:09;9.30;1.00
7048;DHT22;3565;53.254;10.352;2024-03-17T17:10:40;9.00;1.00
7048;DHT22;3565;53.254;10.352;2024-03-17T17:15:48;8.80;1.00
7048;DHT22;3565;53.254;10.352;2024-03-17T17:18:50;8.60;1.00
7048;DHT22;3565;53.254;10.352;2024-03-17T17:21:20;8.50;1.00
7048;DHT22;3565;53.254;10.352;2024-03-17T17:23:50;8.40;1.00
7048;DHT22;3565;53.254;10.352;2024-03-17T17:26:21;8.30;1.00
7048;DHT22;3565;53.254;10.352;2024-03-17T17:31:32;8.10;1.00
7048;DHT22;3565;53.254;10.352;2024-03-17T17:34:01;8.00;1.00
7048;DHT22;3565;53.254;10.352;2024-03-17T17:39:08;7.80;1.00
7048;DHT22;3565;53.254;10.352;2024-03-17T17:41:38;7.70;1.00
7048;DHT22;3565;53.254;10.352;2024-03-17T17:44:07;7.60;1.00
7048;DHT22;3565;53.254;10.352;2024-03-17T17:46:36;7.70;1.00
7048;DHT22;3565;53.254;10.352;2024-03-17T17:49:05;7.60;1.00
7048;DHT22;3565;53.254;10.352;2024-03-17T17:54:11;7.50;1.00
7048;DHT22;3565;53.254;10.352;2024-03-17T17:56:42;7.40;1.00
7048;DHT22;3565;53.254;10.352;2024-03-17T17:59:11;7.30;1.00
7048;DHT22;3565;53.254;10.352;2024-03-17T18:01:41;7.20;1.00
7048;DHT22;3565;53.254;10.352;2024-03-17T18:06:48;7.20;1.00
7048;DHT22;3565;53.254;10.352;2024-03-17T18:11:56;7.10;1.00
7048;DHT22;3565;53.254;10.352;2024-03-17T18:14:25;7.10;1.00
7048;DHT22;3565;53.254;10.352;2024-03-17T18:16:54;7.00;1.00
7048;DHT22;3565;53.254;10.352;2024-03-17T18:19:23;6.90;1.00
7048;DHT22;3565;53.254;10.352;2024-03-17T18:21:53;6.80;1.00
7048;DHT22;3565;53.254;10.352;2024-03-17T18:24:24;6.80;1.00
7048;DHT22;3565;53.254;10.352;2024-03-17T18:26:54;6.80;1.00
7048;DHT22;3565;53.254;10.352;2024-03-17T18:29:23;6.70;1.00
7048;DHT22;3565;53.254;10.352;2024-03-17T18:31:52;6.70;1.00
7048;DHT22;3565;53.254;10.352;2024-03-17T18:37:00;6.60;1.00
7048;DHT22;3565;53.254;10.352;2024-03-17T18:39:30;6.50;1.00
7048;DHT22;3565;53.254;10.352;2024-03-17T18:41:59;6.50;1.00
7048;DHT22;3565;53.254;10.352;2024-03-17T18:44:28;6.40;1.00
7048;DHT22;3565;53.254;10.352;2024-03-17T18:49:35;6.40;1.00
7048;DHT22;3565;53.254;10.352;2024-03-17T18:52:06;6.30;1.00
7048;DHT22;3565;53.254;10.352;2024-03-17T18:57:13;6.30;1.00
7048;DHT22;3565;53.254;10.352;2024-03-17T18:59:42;6.20;1.00
7048;DHT22;3565;53.254;10.352;2024-03-17T19:02:11;6.20;1.00
7048;DHT22;3565;53.254;10.352;2024-03-17T19:04:40;6.10;1.00
7048;DHT22;3565;53.254;10.352;2024-03-17T19:07:09;6.10;1.00
7048;DHT22;3565;53.254;10.352;2024-03-17T19:09:41;6.10;1.00
7048;DHT22;3565;53.254;10.352;2024-03-17T19:12:10;6.00;1.00
7048;DHT22;3565;53.254;10.352;2024-03-17T19:14:39;6.00;1.00
7048;DHT22;3565;53.254;10.352;2024-03-17T19:17:08;6.00;1.00
7048;DHT22;3565;53.254;10.352;2024-03-17T19:19:37;6.00;1.00
7048;DHT22;3565;53.254;10.352;2024-03-17T19:24:43;5.90;1.00
7048;DHT22;3565;53.254;10.352;2024-03-17T19:27:13;6.00;1.00
7048;DHT22;3565;53.254;10.352;2024-03-17T19:29:42;6.00;1.00
7048;DHT22;3565;53.254;10.352;2024-03-17T19:32:12;5.90;1.00
7048;DHT22;3565;53.254;10.352;2024-03-17T19:37:20;5.90;1.00
7048;DHT22;3565;53.254;10.352;2024-03-17T19:39:49;5.90;1.00
7048;DHT22;3565;53.254;10.352;2024-03-17T19:42:19;5.80;1.00
7048;DHT22;3565;53.254;10.352;2024-03-17T19:44:50;5.80;1.00
7048;DHT22;3565;53.254;10.352;2024-03-17T19:47:19;5.70;1.00
7048;DHT22;3565;53.254;10.352;2024-03-17T19:49:52;5.80;1.00
7048;DHT22;3565;53.254;10.352;2024-03-17T19:54:58;5.80;1.00
7048;DHT22;3565;53.254;10.352;2024-03-17T19:57:27;5.70;1.00
7048;DHT22;3565;53.254;10.352;2024-03-17T19:59:57;5.70;1.00
7048;DHT22;3565;53.254;10.352;2024-03-17T20:02:26;5.60;1.00
7048;DHT22;3565;53.254;10.352;2024-03-17T20:04:55;5.60;1.00
7048;DHT22;3565;53.254;10.352;2024-03-17T20:07:25;5.50;1.00
7048;DHT22;3565;53.254;10.352;2024-03-17T20:09:54;5.50;1.00
7048;DHT22;3565;53.254;10.352;2024-03-17T20:12:23;5.40;1.00
7048;DHT22;3565;53.254;10.352;2024-03-17T20:14:53;5.40;1.00
7048;DHT22;3565;53.254;10.352;2024-03-17T20:17:21;5.40;1.00
7048;DHT22;3565;53.254;10.352;2024-03-17T20:22:28;5.30;1.00
7048;DHT22;3565;53.254;10.352;2024-03-17T20:24:57;5.30;1.00
7048;DHT22;3565;53.254;10.352;2024-03-17T20:27:27;5.40;1.00
7048;DHT22;3565;53.254;10.352;2024-03-17T20:29:57;5.40;1.00
7048;DHT22;3565;53.254;10.352;2024-03-17T20:32:26;5.50;1.00
7048;DHT22;3565;53.254;10.352;2024-03-17T20:34:55;5.40;1.00
7048;DHT22;3565;53.254;10.352;2024-03-17T20:37:24;5.40;1.00
7048;DHT22;3565;53.254;10.352;2024-03-17T20:39:54;5.20;1.00
7048;DHT22;3565;53.254;10.352;2024-03-17T20:42:24;5.20;1.00